Terminal Aerodrome Forecast
Issued by NWS

Home | Current Version | Previous Version | Text Only | Print | Product List | Glossary On
Versions: 1 2 3 4 5 6 7 8 9 10 11 12
932
FTUS44 KBMX 220520
TAFTOI
TAF
KTOI 220520Z 2206/2306 09004KT P6SM SCT060 BKN250
     FM221100 10005KT P6SM BKN015 BKN250
     FM221600 13010KT P6SM BKN040 BKN150
     FM230200 14010G18KT 5SM RA VCTS OVC040CB=

USA.gov is the U.S. government's official web portal to all federal, state and local government web resources and services.